sensor_id;sensor_type;location;lat;lon;timestamp;pressure;altitude;pressure_sealevel;temperature;humidity
69086;BME280;56186;59.144;37.936;2022-08-19T13:57:13;101514.00;;;25.41;47.75
69086;BME280;56186;59.144;37.936;2022-08-19T13:59:40;101503.66;;;25.47;46.78
69086;BME280;56186;59.144;37.936;2022-08-19T14:02:06;101498.47;;;25.55;46.08
69086;BME280;56186;59.144;37.936;2022-08-19T14:04:33;101502.09;;;25.66;45.89
69086;BME280;56186;59.144;37.936;2022-08-19T14:06:59;101507.53;;;25.75;44.59
69086;BME280;56186;59.144;37.936;2022-08-19T14:09:25;101506.75;;;25.85;43.61
69086;BME280;56186;59.144;37.936;2022-08-19T14:11:51;101501.75;;;25.91;43.48
69086;BME280;56186;59.144;37.936;2022-08-19T14:14:17;101499.06;;;25.91;42.54
69086;BME280;56186;59.144;37.936;2022-08-19T14:16:43;101509.16;;;25.99;42.06
69086;BME280;56186;59.144;37.936;2022-08-19T14:19:08;101509.59;;;26.04;42.03
69086;BME280;56186;59.144;37.936;2022-08-19T14:21:34;101510.91;;;26.10;41.65
69086;BME280;56186;59.144;37.936;2022-08-19T14:24:02;101511.75;;;26.10;41.29
69086;BME280;56186;59.144;37.936;2022-08-19T14:26:28;101510.63;;;26.13;41.50
69086;BME280;56186;59.144;37.936;2022-08-19T14:28:54;101504.28;;;26.14;41.52
69086;BME280;56186;59.144;37.936;2022-08-19T14:31:23;101512.66;;;26.21;42.10
69086;BME280;56186;59.144;37.936;2022-08-19T14:33:51;101514.38;;;26.22;40.92
69086;BME280;56186;59.144;37.936;2022-08-19T14:36:19;101513.38;;;26.23;40.56
69086;BME280;56186;59.144;37.936;2022-08-19T14:38:47;101514.38;;;26.22;41.19
69086;BME280;56186;59.144;37.936;2022-08-19T14:41:18;101509.84;;;26.22;40.86
69086;BME280;56186;59.144;37.936;2022-08-19T14:43:48;101513.38;;;26.23;40.09
69086;BME280;56186;59.144;37.936;2022-08-19T14:46:18;101514.38;;;26.22;40.63
69086;BME280;56186;59.144;37.936;2022-08-19T14:48:46;101510.69;;;26.23;40.23
69086;BME280;56186;59.144;37.936;2022-08-19T14:51:13;101506.56;;;26.18;40.52
69086;BME280;56186;59.144;37.936;2022-08-19T14:53:40;101510.97;;;26.20;41.33
69086;BME280;56186;59.144;37.936;2022-08-19T14:56:09;101521.69;;;26.20;40.80
69086;BME280;56186;59.144;37.936;2022-08-19T14:58:38;101517.28;;;26.18;40.81
69086;BME280;56186;59.144;37.936;2022-08-19T15:01:06;101522.91;;;26.15;41.52
69086;BME280;56186;59.144;37.936;2022-08-19T15:03:33;101517.69;;;26.14;41.45
69086;BME280;56186;59.144;37.936;2022-08-19T15:06:01;101517.94;;;26.11;41.19
69086;BME280;56186;59.144;37.936;2022-08-19T15:08:29;101517.13;;;26.10;41.03
69086;BME280;56186;59.144;37.936;2022-08-19T15:10:56;101508.88;;;26.02;41.30
69086;BME280;56186;59.144;37.936;2022-08-19T15:13:24;101519.34;;;26.05;40.92
69086;BME280;56186;59.144;37.936;2022-08-19T15:15:52;101531.88;;;26.05;41.41
69086;BME280;56186;59.144;37.936;2022-08-19T15:18:19;101518.16;;;25.98;41.03
69086;BME280;56186;59.144;37.936;2022-08-19T15:20:47;101527.63;;;26.02;40.95
69086;BME280;56186;59.144;37.936;2022-08-19T15:23:14;101500.34;;;25.87;41.10
69086;BME280;56186;59.144;37.936;2022-08-19T15:25:41;101527.06;;;25.99;41.33
69086;BME280;56186;59.144;37.936;2022-08-19T15:28:08;101516.72;;;25.94;40.95
69086;BME280;56186;59.144;37.936;2022-08-19T15:30:37;101515.75;;;25.95;40.96
69086;BME280;56186;59.144;37.936;2022-08-19T15:33:04;101528.78;;;25.88;42.05
69086;BME280;56186;59.144;37.936;2022-08-19T15:35:31;101520.84;;;25.87;41.10
69086;BME280;56186;59.144;37.936;2022-08-19T15:37:57;101509.97;;;25.79;41.16
69086;BME280;56186;59.144;37.936;2022-08-19T15:40:25;101515.88;;;25.82;40.98
69086;BME280;56186;59.144;37.936;2022-08-19T15:42:54;101527.59;;;25.81;40.77
69086;BME280;56186;59.144;37.936;2022-08-19T15:45:23;101526.16;;;25.77;41.14
69086;BME280;56186;59.144;37.936;2022-08-19T15:47:59;101529.66;;;25.77;40.93
69086;BME280;56186;59.144;37.936;2022-08-19T15:50:27;101519.34;;;25.73;40.69
69086;BME280;56186;59.144;37.936;2022-08-19T15:52:57;101515.16;;;25.59;40.96
69086;BME280;56186;59.144;37.936;2022-08-19T15:55:36;101526.31;;;25.64;40.95
69086;BME280;56186;59.144;37.936;2022-08-19T15:58:05;101530.75;;;25.54;41.66
69086;BME280;56186;59.144;37.936;2022-08-19T16:00:49;101539.91;;;25.40;42.32
69086;BME280;56186;59.144;37.936;2022-08-19T16:03:34;101534.00;;;25.25;42.40
69086;BME280;56186;59.144;37.936;2022-08-19T16:06:18;101527.78;;;25.13;42.84
69086;BME280;56186;59.144;37.936;2022-08-19T16:08:55;101529.75;;;25.00;42.79
69086;BME280;56186;59.144;37.936;2022-08-19T16:11:27;101511.53;;;24.83;43.89
69086;BME280;56186;59.144;37.936;2022-08-19T16:13:56;101543.41;;;24.86;44.06
69086;BME280;56186;59.144;37.936;2022-08-19T16:16:24;101539.38;;;24.69;45.21
69086;BME280;56186;59.144;37.936;2022-08-19T16:18:56;101554.56;;;24.68;44.94
69086;BME280;56186;59.144;37.936;2022-08-19T16:21:25;101549.44;;;24.54;44.71
69086;BME280;56186;59.144;37.936;2022-08-19T16:23:52;101558.44;;;24.53;45.32
69086;BME280;56186;59.144;37.936;2022-08-19T16:26:19;101560.69;;;24.46;44.49
69086;BME280;56186;59.144;37.936;2022-08-19T16:28:46;101559.47;;;24.39;45.29
69086;BME280;56186;59.144;37.936;2022-08-19T16:31:14;101553.03;;;24.30;46.33
69086;BME280;56186;59.144;37.936;2022-08-19T16:33:40;101557.25;;;24.22;45.21
69086;BME280;56186;59.144;37.936;2022-08-19T16:36:07;101543.38;;;24.05;44.89
69086;BME280;56186;59.144;37.936;2022-08-19T16:38:33;101561.00;;;24.08;45.85
69086;BME280;56186;59.144;37.936;2022-08-19T16:40:59;101561.22;;;24.05;46.07
69086;BME280;56186;59.144;37.936;2022-08-19T16:43:28;101564.13;;;24.02;46.75
69086;BME280;56186;59.144;37.936;2022-08-19T16:45:56;101556.91;;;23.91;46.16
69086;BME280;56186;59.144;37.936;2022-08-19T16:48:25;101573.06;;;23.89;45.79
69086;BME280;56186;59.144;37.936;2022-08-19T16:50:55;101566.50;;;23.82;46.83
69086;BME280;56186;59.144;37.936;2022-08-19T16:53:24;101565.75;;;23.80;47.55
69086;BME280;56186;59.144;37.936;2022-08-19T16:56:11;101575.69;;;23.78;49.44
69086;BME280;56186;59.144;37.936;2022-08-19T16:58:38;101576.09;;;23.72;49.38
69086;BME280;56186;59.144;37.936;2022-08-19T17:01:06;101573.38;;;23.61;50.49
69086;BME280;56186;59.144;37.936;2022-08-19T17:03:33;101572.56;;;23.47;50.95
69086;BME280;56186;59.144;37.936;2022-08-19T17:06:00;101558.66;;;23.31;50.41
69086;BME280;56186;59.144;37.936;2022-08-19T17:08:30;101581.69;;;23.32;50.98
69086;BME280;56186;59.144;37.936;2022-08-19T17:10:58;101585.78;;;23.25;50.49
69086;BME280;56186;59.144;37.936;2022-08-19T17:13:25;101584.41;;;23.19;51.05
69086;BME280;56186;59.144;37.936;2022-08-19T17:15:53;101585.78;;;23.12;51.71
69086;BME280;56186;59.144;37.936;2022-08-19T17:18:20;101585.28;;;23.07;51.69
69086;BME280;56186;59.144;37.936;2022-08-19T17:20:48;101557.47;;;22.85;51.79
69086;BME280;56186;59.144;37.936;2022-08-19T17:23:14;101578.66;;;22.87;51.68
69086;BME280;56186;59.144;37.936;2022-08-19T17:25:42;101585.16;;;22.83;51.43
69086;BME280;56186;59.144;37.936;2022-08-19T17:31:29;101584.31;;;22.70;51.83
69086;BME280;56186;59.144;37.936;2022-08-19T17:33:56;101575.78;;;22.64;51.95
69086;BME280;56186;59.144;37.936;2022-08-19T17:36:26;101581.97;;;22.65;51.03
69086;BME280;56186;59.144;37.936;2022-08-19T17:38:55;101560.13;;;22.47;51.49
69086;BME280;56186;59.144;37.936;2022-08-19T17:41:23;101578.16;;;22.56;52.68
69086;BME280;56186;59.144;37.936;2022-08-19T17:43:50;101575.25;;;22.47;52.50
69086;BME280;56186;59.144;37.936;2022-08-19T17:46:16;101586.34;;;22.40;53.49
69086;BME280;56186;59.144;37.936;2022-08-19T17:53:58;101589.47;;;22.20;54.05
69086;BME280;56186;59.144;37.936;2022-08-19T17:56:24;101589.34;;;22.09;54.27
69086;BME280;56186;59.144;37.936;2022-08-19T17:58:53;101591.56;;;22.02;54.92
69086;BME280;56186;59.144;37.936;2022-08-19T18:01:20;101595.41;;;21.98;54.72
69086;BME280;56186;59.144;37.936;2022-08-19T18:03:46;101583.34;;;21.92;53.81
69086;BME280;56186;59.144;37.936;2022-08-19T18:06:14;101599.22;;;21.94;53.88
69086;BME280;56186;59.144;37.936;2022-08-19T18:08:44;101582.91;;;21.86;54.04
69086;BME280;56186;59.144;37.936;2022-08-19T18:11:11;101605.59;;;21.91;54.68
69086;BME280;56186;59.144;37.936;2022-08-19T18:13:37;101600.47;;;21.88;54.83
69086;BME280;56186;59.144;37.936;2022-08-19T18:16:05;101603.34;;;21.85;55.36
69086;BME280;56186;59.144;37.936;2022-08-19T18:18:41;101609.50;;;21.86;55.18
69086;BME280;56186;59.144;37.936;2022-08-19T18:21:09;101608.66;;;21.85;55.12
69086;BME280;56186;59.144;37.936;2022-08-19T18:23:41;101601.72;;;21.82;55.16
69086;BME280;56186;59.144;37.936;2022-08-19T18:26:07;101610.78;;;21.80;55.19
69086;BME280;56186;59.144;37.936;2022-08-19T18:28:33;101604.88;;;21.75;55.20
69086;BME280;56186;59.144;37.936;2022-08-19T18:30:59;101606.59;;;21.76;55.55
69086;BME280;56186;59.144;37.936;2022-08-19T18:33:27;101614.75;;;21.73;55.93
69086;BME280;56186;59.144;37.936;2022-08-19T18:35:53;101622.97;;;21.70;55.98
69086;BME280;56186;59.144;37.936;2022-08-19T18:38:20;101560.81;;;21.29;55.51
69086;BME280;56186;59.144;37.936;2022-08-19T18:41:06;101567.94;;;21.29;55.78
69086;BME280;56186;59.144;37.936;2022-08-19T18:43:52;101634.28;;;21.59;55.74
69086;BME280;56186;59.144;37.936;2022-08-19T18:48:22;101634.59;;;21.54;54.55
69086;BME280;56186;59.144;37.936;2022-08-19T18:51:08;101636.78;;;21.48;54.84
69086;BME280;56186;59.144;37.936;2022-08-19T18:53:36;101642.00;;;21.49;55.28
69086;BME280;56186;59.144;37.936;2022-08-19T18:56:05;101647.63;;;21.45;55.01
69086;BME280;56186;59.144;37.936;2022-08-19T18:58:33;101645.06;;;21.43;55.32
69086;BME280;56186;59.144;37.936;2022-08-19T19:01:07;101618.47;;;21.29;56.04
69086;BME280;56186;59.144;37.936;2022-08-19T19:03:43;101650.75;;;21.37;55.60
69086;BME280;56186;59.144;37.936;2022-08-19T19:06:25;101641.03;;;21.36;55.59
69086;BME280;56186;59.144;37.936;2022-08-19T19:08:53;101641.25;;;21.33;55.50
69086;BME280;56186;59.144;37.936;2022-08-19T19:11:25;101645.03;;;21.29;55.85
69086;BME280;56186;59.144;37.936;2022-08-19T19:13:59;101654.84;;;21.28;55.84
69086;BME280;56186;59.144;37.936;2022-08-19T19:16:29;101656.81;;;21.25;56.16
69086;BME280;56186;59.144;37.936;2022-08-19T19:18:56;101649.88;;;21.22;56.27
69086;BME280;56186;59.144;37.936;2022-08-19T19:21:24;101631.19;;;21.09;56.31
69086;BME280;56186;59.144;37.936;2022-08-19T19:23:53;101650.25;;;21.16;56.60
69086;BME280;56186;59.144;37.936;2022-08-19T19:26:20;101647.72;;;21.14;56.70
69086;BME280;56186;59.144;37.936;2022-08-19T19:28:48;101651.09;;;21.16;56.26
69086;BME280;56186;59.144;37.936;2022-08-19T19:31:24;101646.69;;;21.17;55.58
69086;BME280;56186;59.144;37.936;2022-08-19T19:33:54;101647.44;;;21.19;55.78
69086;BME280;56186;59.144;37.936;2022-08-19T19:36:21;101648.56;;;21.15;55.90
69086;BME280;56186;59.144;37.936;2022-08-19T19:39:11;101657.38;;;21.15;55.85
69086;BME280;56186;59.144;37.936;2022-08-19T19:41:36;101656.63;;;21.13;55.61
69086;BME280;56186;59.144;37.936;2022-08-19T19:44:04;101657.75;;;21.09;55.95
69086;BME280;56186;59.144;37.936;2022-08-19T19:46:31;101662.44;;;21.06;55.71
69086;BME280;56186;59.144;37.936;2022-08-19T19:48:58;101636.78;;;20.90;56.08
69086;BME280;56186;59.144;37.936;2022-08-19T19:51:24;101660.06;;;21.01;56.04
69086;BME280;56186;59.144;37.936;2022-08-19T19:56:56;101673.78;;;20.93;56.13
69086;BME280;56186;59.144;37.936;2022-08-19T19:59:22;101656.81;;;20.82;56.25
69086;BME280;56186;59.144;37.936;2022-08-19T20:01:48;101671.13;;;20.93;55.89
69086;BME280;56186;59.144;37.936;2022-08-19T20:04:16;101671.13;;;20.93;56.13
69086;BME280;56186;59.144;37.936;2022-08-19T20:06:43;101669.31;;;20.94;56.24
69086;BME280;56186;59.144;37.936;2022-08-19T20:09:11;101660.50;;;20.93;55.99
69086;BME280;56186;59.144;37.936;2022-08-19T20:11:39;101649.78;;;20.81;55.92
69086;BME280;56186;59.144;37.936;2022-08-19T20:14:14;101668.75;;;20.89;55.68
69086;BME280;56186;59.144;37.936;2022-08-19T20:16:42;101666.38;;;20.84;54.63
69086;BME280;56186;59.144;37.936;2022-08-19T20:19:13;101667.06;;;20.88;54.72
69086;BME280;56186;59.144;37.936;2022-08-19T20:21:39;101666.09;;;20.89;54.89
69086;BME280;56186;59.144;37.936;2022-08-19T20:24:10;101666.94;;;20.89;55.33
69086;BME280;56186;59.144;37.936;2022-08-19T20:26:38;101655.75;;;20.84;55.20
69086;BME280;56186;59.144;37.936;2022-08-19T20:29:05;101662.78;;;20.85;54.89
69086;BME280;56186;59.144;37.936;2022-08-19T20:31:32;101642.56;;;20.68;54.84
69086;BME280;56186;59.144;37.936;2022-08-19T20:33:59;101675.47;;;20.80;55.16
69086;BME280;56186;59.144;37.936;2022-08-19T20:36:25;101671.13;;;20.79;55.24
69086;BME280;56186;59.144;37.936;2022-08-19T20:38:51;101677.50;;;20.76;55.46
69086;BME280;56186;59.144;37.936;2022-08-19T20:41:19;101681.91;;;20.76;55.45
69086;BME280;56186;59.144;37.936;2022-08-19T20:43:47;101683.84;;;20.74;54.97
69086;BME280;56186;59.144;37.936;2022-08-19T20:46:16;101678.81;;;20.69;55.13
69086;BME280;56186;59.144;37.936;2022-08-19T20:48:44;101682.38;;;20.68;54.77
69086;BME280;56186;59.144;37.936;2022-08-19T20:51:11;101682.38;;;20.68;55.04
69086;BME280;56186;59.144;37.936;2022-08-19T20:53:40;101667.84;;;20.59;54.99
69086;BME280;56186;59.144;37.936;2022-08-19T20:56:06;101680.69;;;20.67;54.64
69086;BME280;56186;59.144;37.936;2022-08-19T20:58:34;101675.47;;;20.66;54.90
69086;BME280;56186;59.144;37.936;2022-08-19T21:01:02;101685.31;;;20.64;54.75
69086;BME280;56186;59.144;37.936;2022-08-19T21:03:32;101687.91;;;20.65;54.95
69086;BME280;56186;59.144;37.936;2022-08-19T21:05:59;101688.81;;;20.64;54.87
69086;BME280;56186;59.144;37.936;2022-08-19T21:08:26;101695.25;;;20.60;54.78
69086;BME280;56186;59.144;37.936;2022-08-19T21:10:53;101692.06;;;20.53;54.45
69086;BME280;56186;59.144;37.936;2022-08-19T21:13:21;101692.06;;;20.53;54.84
69086;BME280;56186;59.144;37.936;2022-08-19T21:15:47;101686.31;;;20.47;54.80
69086;BME280;56186;59.144;37.936;2022-08-19T21:18:15;101695.78;;;20.51;55.15
69086;BME280;56186;59.144;37.936;2022-08-19T21:20:43;101699.38;;;20.50;54.55
69086;BME280;56186;59.144;37.936;2022-08-19T21:23:13;101698.63;;;20.48;54.70
69086;BME280;56186;59.144;37.936;2022-08-19T21:25:39;101705.81;;;20.46;54.88
69086;BME280;56186;59.144;37.936;2022-08-19T21:28:07;101676.47;;;20.33;54.95
69086;BME280;56186;59.144;37.936;2022-08-19T21:30:33;101697.16;;;20.42;54.95
69086;BME280;56186;59.144;37.936;2022-08-19T21:33:02;101695.66;;;20.38;54.49
69086;BME280;56186;59.144;37.936;2022-08-19T21:35:28;101692.31;;;20.34;54.63
69086;BME280;56186;59.144;37.936;2022-08-19T21:37:54;101696.78;;;20.34;54.56
69086;BME280;56186;59.144;37.936;2022-08-19T21:40:24;101697.69;;;20.33;54.14
69086;BME280;56186;59.144;37.936;2022-08-19T21:42:51;101688.97;;;20.31;54.47
69086;BME280;56186;59.144;37.936;2022-08-19T21:45:17;101692.50;;;20.31;53.78
69086;BME280;56186;59.144;37.936;2022-08-19T21:47:44;101689.16;;;20.28;54.10
69086;BME280;56186;59.144;37.936;2022-08-19T21:50:11;101697.13;;;20.28;54.38
69086;BME280;56186;59.144;37.936;2022-08-19T21:52:41;101699.97;;;20.25;54.48
69086;BME280;56186;59.144;37.936;2022-08-19T21:55:07;101691.66;;;20.15;54.24
69086;BME280;56186;59.144;37.936;2022-08-19T21:57:43;101705.44;;;20.06;54.89
69086;BME280;56186;59.144;37.936;2022-08-19T22:00:21;101699.81;;;19.96;54.85
69086;BME280;56186;59.144;37.936;2022-08-19T22:02:49;101699.13;;;19.92;55.55
69086;BME280;56186;59.144;37.936;2022-08-19T22:05:17;101693.22;;;19.87;55.28
69086;BME280;56186;59.144;37.936;2022-08-19T22:07:51;101702.66;;;19.93;55.79
69086;BME280;56186;59.144;37.936;2022-08-19T22:10:19;101704.34;;;19.94;55.51
69086;BME280;56186;59.144;37.936;2022-08-19T22:12:47;101706.06;;;19.95;55.87
69086;BME280;56186;59.144;37.936;2022-08-19T22:15:14;101710.50;;;19.94;55.51
69086;BME280;56186;59.144;37.936;2022-08-19T22:17:41;101704.69;;;19.88;55.76
69086;BME280;56186;59.144;37.936;2022-08-19T22:20:12;101715.03;;;19.92;55.63
69086;BME280;56186;59.144;37.936;2022-08-19T22:22:48;101712.56;;;19.89;55.40
69086;BME280;56186;59.144;37.936;2022-08-19T22:25:18;101713.66;;;19.85;55.21
69086;BME280;56186;59.144;37.936;2022-08-19T22:27:44;101712.81;;;19.85;55.67
69086;BME280;56186;59.144;37.936;2022-08-19T22:30:12;101716.44;;;19.84;55.78
69086;BME280;56186;59.144;37.936;2022-08-19T22:32:44;101722.66;;;19.83;55.57
69086;BME280;56186;59.144;37.936;2022-08-19T22:35:11;101715.66;;;19.82;55.80
69086;BME280;56186;59.144;37.936;2022-08-19T22:37:37;101728.22;;;19.78;55.69
69086;BME280;56186;59.144;37.936;2022-08-19T22:40:04;101726.50;;;19.77;55.50
69086;BME280;56186;59.144;37.936;2022-08-19T22:42:31;101731.19;;;19.72;55.87
69086;BME280;56186;59.144;37.936;2022-08-19T22:44:57;101729.78;;;19.65;55.85
69086;BME280;56186;59.144;37.936;2022-08-19T22:47:24;101730.81;;;19.62;56.14
69086;BME280;56186;59.144;37.936;2022-08-19T22:49:51;101741.34;;;19.64;55.50
69086;BME280;56186;59.144;37.936;2022-08-19T22:52:17;101740.66;;;19.60;56.08
69086;BME280;56186;59.144;37.936;2022-08-19T22:54:49;101708.59;;;19.31;56.08
69086;BME280;56186;59.144;37.936;2022-08-19T22:57:16;101751.75;;;19.51;56.15
69086;BME280;56186;59.144;37.936;2022-08-19T22:59:57;101753.69;;;19.47;56.04
69086;BME280;56186;59.144;37.936;2022-08-19T23:02:29;101758.47;;;19.41;55.98
69086;BME280;56186;59.144;37.936;2022-08-19T23:05:01;101753.50;;;19.34;56.05
69086;BME280;56186;59.144;37.936;2022-08-19T23:07:29;101760.50;;;19.35;55.82
69086;BME280;56186;59.144;37.936;2022-08-19T23:09:55;101756.47;;;19.28;55.90
69086;BME280;56186;59.144;37.936;2022-08-19T23:12:36;101759.19;;;19.27;56.28
69086;BME280;56186;59.144;37.936;2022-08-19T23:15:11;101755.69;;;19.26;55.83
69086;BME280;56186;59.144;37.936;2022-08-19T23:17:38;101756.53;;;19.27;56.12
69086;BME280;56186;59.144;37.936;2022-08-19T23:20:13;101729.06;;;19.12;56.00
69086;BME280;56186;59.144;37.936;2022-08-19T23:22:41;101749.63;;;19.24;55.24
69086;BME280;56186;59.144;37.936;2022-08-19T23:25:11;101754.31;;;19.19;55.88
69086;BME280;56186;59.144;37.936;2022-08-19T23:27:38;101754.56;;;19.14;56.09
69086;BME280;56186;59.144;37.936;2022-08-19T23:30:23;101753.94;;;19.09;55.87
69086;BME280;56186;59.144;37.936;2022-08-19T23:32:59;101756.72;;;19.06;55.87
69086;BME280;56186;59.144;37.936;2022-08-19T23:35:30;101759.25;;;19.09;56.29
69086;BME280;56186;59.144;37.936;2022-08-19T23:37:58;101762.75;;;19.10;56.59
69086;BME280;56186;59.144;37.936;2022-08-19T23:40:26;101763.53;;;19.12;56.63
69086;BME280;56186;59.144;37.936;2022-08-19T23:42:54;101762.56;;;19.13;56.44
69086;BME280;56186;59.144;37.936;2022-08-19T23:45:22;101766.84;;;19.16;56.47
69086;BME280;56186;59.144;37.936;2022-08-19T23:47:49;101759.06;;;19.12;56.00
69086;BME280;56186;59.144;37.936;2022-08-19T23:50:15;101765.22;;;19.13;56.11
69086;BME280;56186;59.144;37.936;2022-08-19T23:52:45;101765.28;;;19.11;56.03
69086;BME280;56186;59.144;37.936;2022-08-19T23:55:13;101772.56;;;19.08;56.05
69086;BME280;56186;59.144;37.936;2022-08-19T23:57:39;101771.59;;;19.09;55.99
